Time;durP1;ratioP1;P1;durP2;ratioP2;P2;SDS_P1;SDS_P2;PMS_P1;PMS_P2;Temp;Humidity;BMP_temperature;BMP_pressure;BME280_temperature;BME280_humidity;BME280_pressure;Samples;Min_cycle;Max_cycle;Signal;HPM_P1;HPM_P2
2022/02/17 00:00:59;;;;;;;19.95;8.82;;;5.50;99.90;;;;;;5013934;28;21047;-72
2022/02/17 00:03:26;;;;;;;20.13;7.40;;;5.50;99.90;;;;;;4991154;28;20652;-72
2022/02/17 00:05:53;;;;;;;20.33;7.60;;;5.50;99.90;;;;;;5023088;28;20555;-73
2022/02/17 00:08:26;;;;;;;16.05;7.22;;;5.50;99.90;;;;;;5015912;28;20041;-72
2022/02/17 00:10:53;;;;;;;18.15;7.78;;;5.50;99.90;;;;;;5015637;28;20052;-72
2022/02/17 00:13:21;;;;;;;21.77;9.23;;;5.50;99.90;;;;;;5001828;28;20048;-72
2022/02/17 00:15:48;;;;;;;15.30;7.05;;;5.50;99.90;;;;;;5009375;28;20050;-72
2022/02/17 00:18:21;;;;;;;19.55;6.80;;;5.60;99.90;;;;;;5009542;28;20049;-73
2022/02/17 00:20:53;;;;;;;18.95;7.07;;;5.40;99.90;;;;;;5006868;28;20056;-72
2022/02/17 00:23:20;;;;;;;15.23;7.37;;;5.40;99.90;;;;;;5008017;28;20050;-72
2022/02/17 00:25:48;;;;;;;18.10;7.63;;;5.50;99.90;;;;;;5018779;28;20045;-72
2022/02/17 00:28:16;;;;;;;18.23;8.18;;;5.60;99.90;;;;;;5032610;28;20603;-72
2022/02/17 00:30:43;;;;;;;14.93;6.78;;;5.60;99.90;;;;;;5017476;28;20073;-72
2022/02/17 00:33:10;;;;;;;15.93;7.20;;;5.70;99.90;;;;;;5012763;28;20059;-72
2022/02/17 00:35:43;;;;;;;16.92;7.20;;;5.70;99.90;;;;;;5030383;28;20087;-72
2022/02/17 00:38:11;;;;;;;14.68;6.75;;;5.60;99.90;;;;;;5025399;28;20746;-73
2022/02/17 00:40:38;;;;;;;14.70;6.78;;;5.80;99.90;;;;;;5010704;28;20496;-72
2022/02/17 00:43:05;;;;;;;16.55;7.07;;;5.90;99.90;;;;;;5041779;28;20052;-73
2022/02/17 00:45:32;;;;;;;15.93;6.07;;;6.00;99.90;;;;;;5017571;28;20099;-73
2022/02/17 00:47:59;;;;;;;16.02;7.00;;;6.00;99.90;;;;;;5014461;28;20045;-73
2022/02/17 00:50:27;;;;;;;16.35;7.40;;;6.20;99.90;;;;;;4998969;28;20076;-73
2022/02/17 00:52:56;;;;;;;19.05;7.35;;;6.20;99.90;;;;;;5014281;28;20053;-72
2022/02/17 00:55:23;;;;;;;15.02;6.40;;;6.10;99.90;;;;;;5015573;28;20351;-73
2022/02/17 00:57:50;;;;;;;14.57;6.03;;;6.10;99.90;;;;;;5018162;28;20189;-73
2022/02/17 01:00:20;;;;;;;18.05;7.30;;;6.10;99.90;;;;;;5031688;28;20139;-72
2022/02/17 01:02:47;;;;;;;16.88;7.07;;;6.10;99.90;;;;;;5038968;28;20041;-72
2022/02/17 01:05:14;;;;;;;19.88;8.10;;;6.00;99.90;;;;;;5015229;28;20041;-73
2022/02/17 01:07:41;;;;;;;16.10;6.65;;;5.90;99.90;;;;;;5019537;28;20053;-72
2022/02/17 01:10:10;;;;;;;19.00;7.07;;;5.70;99.90;;;;;;5004606;28;20122;-72
2022/02/17 01:12:37;;;;;;;14.25;7.38;;;5.70;99.90;;;;;;5019146;28;20409;-72
2022/02/17 01:15:06;;;;;;;19.73;7.25;;;5.50;99.90;;;;;;5017091;28;20901;-73
2022/02/17 01:17:33;;;;;;;18.70;6.78;;;5.40;99.90;;;;;;5015740;28;20132;-73
2022/02/17 01:20:00;;;;;;;18.88;6.57;;;5.50;99.90;;;;;;5024861;28;20041;-73
2022/02/17 01:22:32;;;;;;;17.38;7.40;;;5.50;99.90;;;;;;5018517;28;20465;-72
2022/02/17 01:24:59;;;;;;;20.38;7.43;;;5.60;99.90;;;;;;5021519;28;20041;-72
2022/02/17 01:27:26;;;;;;;18.25;6.70;;;5.60;99.90;;;;;;5029418;28;20056;-73
2022/02/17 01:29:54;;;;;;;16.27;6.15;;;5.60;99.90;;;;;;5015744;28;20642;-73
2022/02/17 01:32:22;;;;;;;18.58;6.97;;;5.70;99.90;;;;;;5015533;28;20935;-73
2022/02/17 01:34:49;;;;;;;16.73;6.57;;;5.80;99.90;;;;;;5016922;28;20041;-72
2022/02/17 01:37:16;;;;;;;18.10;7.05;;;5.70;99.90;;;;;;5015382;28;20053;-72
2022/02/17 01:39:46;;;;;;;20.33;6.47;;;5.60;99.90;;;;;;5000729;28;20040;-72
2022/02/17 01:42:15;;;;;;;17.20;6.53;;;5.70;99.90;;;;;;5013517;28;22300;-73
2022/02/17 01:44:45;;;;;;;16.73;6.55;;;5.70;99.90;;;;;;4996828;28;20084;-72
2022/02/17 01:47:15;;;;;;;14.40;7.05;;;5.70;99.90;;;;;;5015495;28;20075;-72
2022/02/17 01:49:43;;;;;;;15.65;7.03;;;5.70;99.90;;;;;;5013510;28;20036;-72
2022/02/17 01:52:12;;;;;;;18.77;7.15;;;5.80;99.90;;;;;;5017511;28;20111;-73
2022/02/17 01:54:41;;;;;;;19.08;6.60;;;5.90;99.90;;;;;;4998554;28;20439;-72
2022/02/17 01:57:14;;;;;;;17.17;6.60;;;6.10;99.90;;;;;;5036752;28;20053;-72
2022/02/17 01:59:46;;;;;;;16.05;5.93;;;6.00;99.90;;;;;;5021975;28;20032;-72
2022/02/17 02:02:21;;;;;;;12.38;5.72;;;6.00;99.90;;;;;;5012999;28;20159;-72
2022/02/17 02:04:56;;;;;;;13.73;6.25;;;6.10;99.90;;;;;;5013733;28;20093;-73
2022/02/17 02:07:24;;;;;;;16.15;6.15;;;6.10;99.90;;;;;;5012180;28;20771;-72
2022/02/17 02:09:54;;;;;;;14.45;5.65;;;6.00;99.90;;;;;;4996918;28;20040;-73
2022/02/17 02:12:30;;;;;;;13.90;5.63;;;6.00;99.90;;;;;;5030843;28;20079;-72
2022/02/17 02:14:59;;;;;;;14.02;5.80;;;6.00;99.90;;;;;;4998749;28;20057;-73
2022/02/17 02:17:29;;;;;;;18.05;5.43;;;6.10;99.90;;;;;;5014313;28;20107;-73
2022/02/17 02:19:59;;;;;;;14.48;6.30;;;6.00;99.90;;;;;;5028333;28;20740;-73
2022/02/17 02:22:29;;;;;;;16.08;6.13;;;5.90;99.90;;;;;;5020212;28;20069;-73
2022/02/17 02:25:00;;;;;;;14.45;6.05;;;6.00;99.90;;;;;;5014984;28;20637;-72
2022/02/17 02:27:29;;;;;;;12.52;5.55;;;5.90;99.90;;;;;;5012739;28;21364;-72
2022/02/17 02:29:58;;;;;;;17.92;5.80;;;5.80;99.90;;;;;;5014437;28;20072;-73
2022/02/17 02:32:30;;;;;;;19.02;6.78;;;5.80;99.90;;;;;;5013716;28;20059;-72
2022/02/17 02:34:57;;;;;;;17.48;6.78;;;5.90;99.90;;;;;;5013848;28;20049;-72
2022/02/17 02:37:25;;;;;;;14.95;5.75;;;6.00;99.90;;;;;;5018043;28;20048;-72
2022/02/17 02:39:52;;;;;;;13.95;5.65;;;6.00;99.90;;;;;;5011409;28;20058;-73
2022/02/17 02:42:21;;;;;;;11.65;5.80;;;6.20;99.90;;;;;;5000650;28;20064;-72
2022/02/17 02:44:51;;;;;;;11.98;5.22;;;6.20;99.90;;;;;;5020471;28;20087;-72
2022/02/17 02:47:19;;;;;;;12.30;5.60;;;6.20;99.90;;;;;;5021094;28;20131;-73
2022/02/17 02:49:46;;;;;;;13.32;5.30;;;6.20;99.90;;;;;;5014735;28;20056;-72
2022/02/17 02:52:13;;;;;;;12.73;4.88;;;6.20;99.90;;;;;;5015951;28;20079;-73
2022/02/17 02:54:44;;;;;;;12.35;5.00;;;6.20;99.90;;;;;;5014607;28;20048;-72
2022/02/17 02:57:11;;;;;;;11.05;4.82;;;6.20;99.90;;;;;;5014895;28;20132;-72
2022/02/17 02:59:41;;;;;;;9.30;4.18;;;6.30;99.90;;;;;;5034766;28;20064;-73
2022/02/17 03:02:14;;;;;;;12.65;4.82;;;6.30;99.90;;;;;;5014782;28;20044;-72
2022/02/17 03:04:41;;;;;;;12.00;4.93;;;6.40;99.90;;;;;;5034026;28;20095;-72
2022/02/17 03:07:15;;;;;;;13.80;4.85;;;6.30;99.90;;;;;;5030164;28;20040;-72
2022/02/17 03:09:44;;;;;;;14.15;5.30;;;6.20;99.90;;;;;;5021988;28;20049;-72
2022/02/17 03:12:14;;;;;;;11.20;4.82;;;6.20;99.90;;;;;;4998684;28;20041;-72
2022/02/17 03:14:43;;;;;;;11.15;4.95;;;6.20;99.90;;;;;;5009773;28;20142;-73
2022/02/17 03:17:17;;;;;;;10.07;4.47;;;6.20;99.90;;;;;;5013373;28;20488;-73
2022/02/17 03:19:44;;;;;;;12.48;5.28;;;6.30;99.90;;;;;;4999279;28;20060;-72
2022/02/17 03:22:13;;;;;;;13.05;6.07;;;6.30;99.90;;;;;;5014832;28;20044;-72
2022/02/17 03:24:41;;;;;;;11.10;4.70;;;6.30;99.90;;;;;;5010599;28;20052;-72
2022/02/17 03:27:08;;;;;;;13.00;5.15;;;6.30;99.90;;;;;;5012544;28;20806;-72
2022/02/17 03:29:36;;;;;;;11.85;4.85;;;6.30;99.90;;;;;;5014488;28;20044;-72
2022/02/17 03:32:07;;;;;;;12.23;5.10;;;6.40;99.90;;;;;;5011692;28;20053;-73
2022/02/17 03:34:34;;;;;;;14.02;5.20;;;6.40;99.90;;;;;;5013362;28;20046;-72
2022/02/17 03:37:01;;;;;;;12.10;5.25;;;6.30;99.90;;;;;;5012776;28;20055;-72
2022/02/17 03:39:28;;;;;;;15.70;5.78;;;6.30;99.90;;;;;;5002398;28;20071;-72
2022/02/17 03:42:06;;;;;;;10.18;4.32;;;6.30;99.90;;;;;;5017510;28;20747;-72
2022/02/17 03:44:33;;;;;;;10.70;4.90;;;6.20;99.90;;;;;;5013583;28;20041;-73
2022/02/17 03:47:23;;;;;;;11.27;5.07;;;6.30;99.90;;;;;;5029135;28;20049;-73
2022/02/17 03:50:10;;;;;;;8.75;4.03;;;6.30;99.90;;;;;;5022440;28;20049;-73
2022/02/17 03:52:38;;;;;;;11.20;5.13;;;6.40;99.90;;;;;;5014469;28;20495;-72
2022/02/17 03:55:10;;;;;;;11.55;5.25;;;6.30;99.90;;;;;;5013888;28;20036;-72
2022/02/17 03:57:46;;;;;;;13.20;4.28;;;6.40;99.90;;;;;;5018375;28;20190;-72
2022/02/17 04:00:23;;;;;;;12.20;4.75;;;6.40;99.90;;;;;;5015199;28;20052;-72
2022/02/17 04:02:53;;;;;;;10.48;4.82;;;6.40;99.90;;;;;;5025889;28;20055;-72
2022/02/17 04:05:23;;;;;;;11.45;4.68;;;6.40;99.90;;;;;;5014967;28;20037;-73
2022/02/17 04:07:59;;;;;;;11.13;4.88;;;6.30;99.90;;;;;;5010460;28;20052;-72
2022/02/17 04:10:28;;;;;;;13.07;5.07;;;6.30;99.90;;;;;;5017074;28;20049;-72
2022/02/17 04:12:58;;;;;;;11.35;4.55;;;6.40;99.90;;;;;;5022252;28;20049;-72
2022/02/17 04:15:35;;;;;;;10.43;4.75;;;6.40;99.90;;;;;;5013246;28;20057;-73
2022/02/17 04:18:02;;;;;;;10.60;4.55;;;6.60;99.90;;;;;;5001101;28;20447;-73
2022/02/17 04:20:39;;;;;;;11.70;4.60;;;6.60;99.90;;;;;;5015832;28;20064;-72
2022/02/17 04:23:14;;;;;;;9.77;4.50;;;6.50;99.90;;;;;;5017614;28;20048;-73
2022/02/17 04:25:47;;;;;;;10.82;4.22;;;6.60;99.90;;;;;;5024963;28;20098;-73
2022/02/17 04:28:32;;;;;;;9.98;4.25;;;6.70;99.90;;;;;;5013348;28;20041;-73
2022/02/17 04:30:59;;;;;;;11.02;4.57;;;6.80;99.90;;;;;;5018165;28;20055;-72
2022/02/17 04:33:29;;;;;;;12.45;4.00;;;6.70;99.90;;;;;;4997347;28;20515;-72
2022/02/17 04:36:05;;;;;;;11.68;4.57;;;6.70;99.90;;;;;;5018338;28;20084;-73
2022/02/17 04:38:36;;;;;;;8.88;3.63;;;6.60;99.90;;;;;;5020230;28;20049;-73
2022/02/17 04:43:49;;;;;;;10.95;4.47;;;6.60;99.90;;;;;;5031054;28;20041;-72
2022/02/17 04:46:17;;;;;;;10.20;4.22;;;6.70;99.90;;;;;;5019579;28;20045;-73
2022/02/17 04:48:44;;;;;;;15.65;5.07;;;6.60;99.90;;;;;;5018016;28;20053;-73
2022/02/17 04:51:13;;;;;;;12.68;5.13;;;6.60;99.90;;;;;;5024006;28;20073;-74
2022/02/17 04:53:40;;;;;;;12.75;5.03;;;6.60;99.90;;;;;;4998262;28;20044;-73
2022/02/17 04:56:07;;;;;;;10.05;4.30;;;6.60;99.90;;;;;;5000752;28;20067;-73
2022/02/17 04:58:38;;;;;;;10.70;5.07;;;6.70;99.90;;;;;;5023644;28;20108;-73
2022/02/17 05:01:06;;;;;;;16.55;4.85;;;6.70;99.90;;;;;;5024031;28;20040;-73
2022/02/17 05:03:53;;;;;;;7.07;4.03;;;6.70;99.90;;;;;;5016492;28;20678;-73
2022/02/17 05:06:21;;;;;;;7.93;3.47;;;6.70;99.90;;;;;;5017405;28;20053;-73
2022/02/17 05:08:55;;;;;;;10.52;3.92;;;6.70;99.90;;;;;;5016015;28;20044;-73
2022/02/17 05:11:22;;;;;;;8.23;3.65;;;6.70;99.90;;;;;;5016466;28;20049;-73
2022/02/17 05:13:51;;;;;;;11.23;4.18;;;6.80;99.90;;;;;;5015256;28;20136;-73
2022/02/17 05:16:18;;;;;;;8.25;3.55;;;6.80;99.90;;;;;;5029825;28;21914;-73
2022/02/17 05:18:47;;;;;;;6.75;3.17;;;6.80;99.90;;;;;;5033482;28;20041;-73
2022/02/17 05:21:19;;;;;;;11.10;3.95;;;7.00;99.90;;;;;;5015384;28;20073;-73
2022/02/17 05:24:19;;;;;;;10.10;3.58;;;7.00;99.90;;;;;;5014802;28;20049;-73
2022/02/17 05:27:06;;;;;;;7.07;3.42;;;7.00;99.90;;;;;;5037655;28;20625;-74
2022/02/17 05:29:57;;;;;;;12.52;3.63;;;6.90;99.90;;;;;;4995465;28;20138;-73
2022/02/17 05:32:53;;;;;;;6.95;3.78;;;6.90;99.90;;;;;;4997102;28;20062;-73
2022/02/17 05:35:23;;;;;;;10.45;3.45;;;6.70;99.90;;;;;;5024961;28;20045;-73
2022/02/17 05:38:09;;;;;;;10.50;3.90;;;6.70;99.90;;;;;;5022834;28;20052;-73
2022/02/17 05:40:47;;;;;;;9.95;3.63;;;6.70;99.90;;;;;;5022644;28;20600;-73
2022/02/17 05:43:15;;;;;;;8.07;3.17;;;6.80;99.90;;;;;;5039195;28;20072;-73
2022/02/17 05:45:41;;;;;;;8.38;3.70;;;6.80;99.90;;;;;;5036285;28;20037;-72
2022/02/17 05:48:08;;;;;;;16.48;5.15;;;6.80;99.90;;;;;;5012429;28;20105;-73
2022/02/17 05:50:38;;;;;;;12.15;5.43;;;6.70;99.90;;;;;;5013489;28;20041;-73
2022/02/17 05:53:05;;;;;;;9.00;3.90;;;6.70;99.90;;;;;;5037816;28;20442;-73
2022/02/17 05:55:32;;;;;;;11.70;4.35;;;6.70;99.90;;;;;;5035580;28;20061;-73
2022/02/17 05:57:59;;;;;;;7.32;3.88;;;6.70;99.90;;;;;;5014160;28;20052;-73
2022/02/17 06:00:26;;;;;;;8.07;3.00;;;6.80;99.90;;;;;;5015583;28;21322;-73
2022/02/17 06:02:53;;;;;;;9.40;3.20;;;6.70;99.90;;;;;;5015461;28;20621;-73
2022/02/17 06:05:20;;;;;;;6.45;3.05;;;6.70;99.90;;;;;;5036545;28;20439;-73
2022/02/17 06:07:47;;;;;;;8.05;3.45;;;6.80;99.90;;;;;;5021324;28;20578;-73
2022/02/17 06:10:20;;;;;;;8.13;3.15;;;6.90;99.90;;;;;;5032741;28;20045;-72
2022/02/17 06:12:47;;;;;;;9.95;3.47;;;6.80;99.90;;;;;;5035324;28;20045;-73
2022/02/17 06:15:19;;;;;;;6.82;3.55;;;6.80;99.90;;;;;;5012623;28;20103;-73
2022/02/17 06:17:46;;;;;;;8.27;2.97;;;6.80;99.90;;;;;;5034571;28;20123;-73
2022/02/17 06:20:13;;;;;;;9.15;3.30;;;6.80;99.90;;;;;;5040598;28;20789;-74
2022/02/17 06:22:45;;;;;;;5.80;2.88;;;6.80;99.90;;;;;;5006344;28;20395;-72
2022/02/17 06:25:12;;;;;;;6.88;2.97;;;6.80;99.90;;;;;;5021267;28;20420;-73
2022/02/17 06:27:39;;;;;;;6.90;3.47;;;6.90;99.90;;;;;;5036279;28;20080;-73
2022/02/17 06:30:07;;;;;;;10.52;3.33;;;6.90;99.90;;;;;;5033997;28;20045;-74
2022/02/17 06:32:34;;;;;;;9.40;3.58;;;6.80;99.90;;;;;;5012455;28;20202;-73
2022/02/17 06:35:01;;;;;;;9.13;3.00;;;6.80;99.90;;;;;;5005948;28;20048;-73
2022/02/17 06:37:28;;;;;;;8.60;3.22;;;6.80;99.90;;;;;;5013612;28;20063;-73
2022/02/17 06:39:55;;;;;;;6.32;2.65;;;6.90;99.90;;;;;;5015627;28;20048;-74
2022/02/17 06:42:22;;;;;;;5.32;2.38;;;6.90;99.90;;;;;;5032743;28;20085;-72
2022/02/17 06:44:49;;;;;;;8.00;3.08;;;6.90;99.90;;;;;;5034322;28;20045;-73
2022/02/17 06:47:16;;;;;;;8.25;3.35;;;7.00;99.90;;;;;;5011372;28;20068;-73
2022/02/17 06:49:43;;;;;;;9.23;3.65;;;7.00;99.90;;;;;;5019882;28;20048;-73
2022/02/17 06:52:10;;;;;;;8.27;3.80;;;7.10;99.90;;;;;;5026459;28;20151;-73
2022/02/17 06:54:37;;;;;;;6.85;3.08;;;7.10;99.90;;;;;;5033202;28;20125;-73
2022/02/17 06:57:05;;;;;;;8.43;2.92;;;7.10;99.90;;;;;;5036849;28;20064;-73
2022/02/17 06:59:33;;;;;;;5.30;2.22;;;7.10;99.90;;;;;;5020155;28;20048;-73
2022/02/17 07:02:00;;;;;;;8.02;3.45;;;7.10;99.90;;;;;;5026178;28;20048;-72
2022/02/17 07:04:27;;;;;;;5.15;2.28;;;7.00;99.90;;;;;;5014990;28;20065;-73
2022/02/17 07:06:55;;;;;;;6.97;2.38;;;7.10;99.90;;;;;;5014935;28;20048;-73
2022/02/17 07:09:22;;;;;;;7.95;2.42;;;7.10;99.90;;;;;;5039051;28;20541;-73
2022/02/17 07:11:49;;;;;;;6.40;2.35;;;7.10;99.90;;;;;;5033586;28;20049;-72
2022/02/17 07:14:16;;;;;;;7.35;3.30;;;7.20;99.90;;;;;;5034108;28;20118;-73
2022/02/17 07:16:43;;;;;;;9.30;3.42;;;7.20;99.90;;;;;;5035573;28;20583;-73
2022/02/17 07:19:10;;;;;;;9.15;4.20;;;7.20;99.90;;;;;;5023585;28;20124;-73
2022/02/17 07:21:37;;;;;;;9.40;4.05;;;7.20;99.90;;;;;;4996931;28;20626;-73
2022/02/17 07:24:05;;;;;;;10.02;3.92;;;7.30;99.90;;;;;;5032815;28;20137;-73
2022/02/17 07:26:32;;;;;;;10.32;4.88;;;7.40;99.90;;;;;;5009454;28;20138;-73
2022/02/17 07:28:59;;;;;;;9.93;3.65;;;7.40;99.90;;;;;;5017811;28;20060;-74
2022/02/17 07:31:26;;;;;;;8.45;4.40;;;7.30;99.90;;;;;;5030186;28;20048;-74
2022/02/17 07:33:53;;;;;;;12.40;4.45;;;7.30;99.90;;;;;;5013464;28;20516;-74
2022/02/17 07:36:21;;;;;;;10.10;3.55;;;7.30;99.90;;;;;;5012347;28;20781;-74
2022/02/17 07:38:49;;;;;;;7.15;3.95;;;7.40;99.90;;;;;;5010913;28;21387;-74
2022/02/17 07:41:16;;;;;;;8.70;4.13;;;7.30;99.90;;;;;;5016655;28;20045;-74
2022/02/17 07:43:43;;;;;;;12.38;4.20;;;7.30;99.90;;;;;;5010398;28;20119;-73
2022/02/17 07:46:12;;;;;;;9.32;4.13;;;7.30;99.90;;;;;;5009231;28;20136;-74
2022/02/17 07:48:39;;;;;;;7.57;3.50;;;7.30;99.90;;;;;;4995329;28;20501;-74
2022/02/17 07:51:07;;;;;;;8.93;3.88;;;7.30;99.90;;;;;;5005203;28;20056;-74
2022/02/17 07:53:34;;;;;;;9.30;3.72;;;7.30;99.90;;;;;;5011085;28;20172;-74
2022/02/17 07:56:02;;;;;;;9.98;4.18;;;7.30;99.90;;;;;;5011766;28;20211;-74
2022/02/17 07:58:29;;;;;;;10.10;4.22;;;7.30;99.90;;;;;;5010654;28;20049;-74
2022/02/17 08:00:56;;;;;;;10.23;3.90;;;7.40;99.90;;;;;;5014049;28;22328;-74
2022/02/17 08:03:23;;;;;;;9.13;4.47;;;7.40;99.90;;;;;;4996226;28;20133;-74
2022/02/17 08:05:50;;;;;;;9.98;4.40;;;7.50;99.90;;;;;;5011608;28;20091;-74
2022/02/17 08:08:18;;;;;;;9.63;4.15;;;7.60;99.90;;;;;;5012246;28;20234;-74
2022/02/17 08:10:46;;;;;;;8.60;3.88;;;7.60;99.90;;;;;;5008372;28;20132;-74
2022/02/17 08:13:13;;;;;;;9.52;3.95;;;7.60;99.90;;;;;;5014739;28;20105;-74
2022/02/17 08:15:41;;;;;;;8.43;3.50;;;7.70;99.90;;;;;;5012972;28;20714;-74
2022/02/17 08:18:08;;;;;;;6.97;3.67;;;7.70;99.90;;;;;;5013983;28;20494;-73
2022/02/17 08:20:36;;;;;;;8.05;3.38;;;7.80;99.90;;;;;;5011876;28;20056;-72
2022/02/17 08:23:03;;;;;;;6.70;3.35;;;7.80;99.90;;;;;;5003180;28;21394;-73
2022/02/17 08:25:32;;;;;;;10.82;4.20;;;7.90;99.90;;;;;;5005774;28;20045;-73
2022/02/17 08:27:59;;;;;;;8.98;3.22;;;8.00;99.90;;;;;;5003942;28;20049;-73
2022/02/17 08:30:26;;;;;;;10.40;4.70;;;8.10;99.90;;;;;;5014403;28;20624;-73
2022/02/17 08:32:57;;;;;;;6.05;2.83;;;8.20;99.90;;;;;;5010823;28;20044;-73
2022/02/17 08:35:25;;;;;;;6.72;3.28;;;8.30;99.90;;;;;;5032963;28;20052;-74
2022/02/17 08:37:52;;;;;;;5.93;2.88;;;8.50;99.90;;;;;;5034733;28;20048;-73
2022/02/17 08:40:19;;;;;;;4.25;1.67;;;8.60;99.90;;;;;;5007310;28;20052;-73
2022/02/17 08:42:49;;;;;;;7.72;3.03;;;8.80;99.90;;;;;;5017392;28;20055;-73
2022/02/17 08:45:16;;;;;;;4.10;1.05;;;8.90;99.90;;;;;;5016747;28;22276;-73
2022/02/17 08:47:43;;;;;;;6.15;2.67;;;9.10;99.30;;;;;;5016334;28;20126;-75
2022/02/17 08:50:11;;;;;;;7.43;1.20;;;9.20;98.00;;;;;;5015671;28;20045;-74
2022/02/17 08:52:39;;;;;;;136.88;42.53;;;9.20;96.60;;;;;;5031868;28;20129;-73
2022/02/17 08:55:07;;;;;;;11.90;6.32;;;9.20;97.60;;;;;;5013797;28;20545;-73
2022/02/17 08:57:34;;;;;;;3.65;1.65;;;9.30;97.00;;;;;;5031256;28;20048;-73
2022/02/17 09:00:02;;;;;;;6.38;3.13;;;9.30;96.70;;;;;;5025837;28;20443;-73
2022/02/17 09:02:30;;;;;;;4.45;2.15;;;9.20;96.10;;;;;;5030273;28;20099;-73
2022/02/17 09:04:57;;;;;;;4.55;2.65;;;9.20;95.90;;;;;;5035840;28;20048;-73
2022/02/17 09:07:24;;;;;;;3.63;1.90;;;9.30;95.50;;;;;;5016246;28;20067;-73
2022/02/17 09:09:51;;;;;;;8.05;3.10;;;9.50;94.80;;;;;;5034929;28;20050;-73
2022/02/17 09:12:19;;;;;;;5.22;2.40;;;9.70;93.50;;;;;;5016421;28;20044;-73
2022/02/17 09:14:46;;;;;;;4.28;1.33;;;9.80;93.00;;;;;;5004826;28;20044;-73
2022/02/17 09:17:14;;;;;;;2.30;0.80;;;9.90;92.80;;;;;;5030495;28;20057;-73
2022/02/17 09:19:43;;;;;;;5.78;1.40;;;10.00;92.10;;;;;;5037343;28;20049;-74
2022/02/17 09:22:10;;;;;;;5.45;1.40;;;9.90;92.00;;;;;;5035423;28;20346;-74
2022/02/17 09:24:37;;;;;;;3.75;1.63;;;9.90;92.00;;;;;;5017093;28;20698;-74
2022/02/17 09:27:05;;;;;;;4.65;1.67;;;9.90;92.10;;;;;;5016499;28;20053;-75
2022/02/17 09:29:34;;;;;;;2.70;0.90;;;10.00;91.30;;;;;;5015518;28;20439;-74
2022/02/17 09:32:22;;;;;;;3.47;1.38;;;10.10;91.50;;;;;;5034918;28;20632;-74
2022/02/17 09:34:49;;;;;;;4.38;1.95;;;10.40;91.40;;;;;;5001458;28;20044;-74
2022/02/17 09:37:17;;;;;;;3.38;1.20;;;10.60;90.90;;;;;;5039712;28;20049;-74
2022/02/17 09:39:47;;;;;;;11.48;5.55;;;10.80;89.40;;;;;;5019427;28;20033;-74
2022/02/17 09:42:14;;;;;;;8.85;4.85;;;10.90;90.00;;;;;;5033773;28;20049;-75
2022/02/17 09:44:42;;;;;;;8.68;4.82;;;11.00;86.60;;;;;;5007383;28;20049;-75
2022/02/17 09:47:11;;;;;;;5.68;3.45;;;10.80;86.30;;;;;;4999216;28;22296;-74
2022/02/17 09:49:42;;;;;;;6.13;3.85;;;10.70;86.90;;;;;;5016869;28;20041;-74
2022/02/17 09:52:11;;;;;;;6.60;3.72;;;10.70;87.60;;;;;;5032898;28;20037;-75
2022/02/17 09:54:39;;;;;;;12.48;5.75;;;10.60;87.30;;;;;;5020078;28;20095;-75
2022/02/17 09:57:06;;;;;;;4.60;1.90;;;10.60;87.90;;;;;;5034852;28;20041;-74
2022/02/17 09:59:33;;;;;;;5.30;2.00;;;10.70;87.80;;;;;;5039308;28;20041;-74
2022/02/17 10:02:03;;;;;;;9.85;4.60;;;10.90;85.50;;;;;;5016440;28;20123;-75
2022/02/17 10:04:31;;;;;;;7.05;3.25;;;11.00;85.70;;;;;;5030952;28;20053;-74
2022/02/17 10:07:00;;;;;;;25.48;3.58;;;11.10;85.50;;;;;;5022498;28;20033;-74
2022/02/17 10:09:35;;;;;;;3.60;1.58;;;11.30;83.20;;;;;;5008938;28;20048;-74
2022/02/17 10:12:04;;;;;;;4.45;2.03;;;11.40;82.00;;;;;;5037408;28;20044;-74
2022/02/17 10:14:31;;;;;;;5.47;1.83;;;11.50;83.10;;;;;;5037884;28;20114;-75
2022/02/17 10:17:09;;;;;;;5.15;2.17;;;11.60;81.20;;;;;;5018857;28;20044;-74
2022/02/17 10:19:47;;;;;;;5.32;2.13;;;11.70;82.20;;;;;;5018071;28;20076;-74
2022/02/17 10:22:23;;;;;;;6.97;2.20;;;11.90;80.90;;;;;;5016840;28;20040;-75
2022/02/17 10:24:54;;;;;;;3.05;1.60;;;11.90;80.20;;;;;;5015919;28;20053;-74
2022/02/17 10:27:24;;;;;;;4.07;1.40;;;12.10;81.00;;;;;;5003583;28;20054;-74
2022/02/17 10:30:13;;;;;;;5.70;2.33;;;12.10;77.70;;;;;;5019041;28;20580;-74
2022/02/17 10:32:56;;;;;;;5.40;1.85;;;11.90;79.10;;;;;;5033700;28;20049;-74
2022/02/17 10:35:27;;;;;;;4.95;2.22;;;12.00;78.20;;;;;;5016270;28;20072;-74
2022/02/17 10:38:02;;;;;;;6.45;2.05;;;12.10;78.40;;;;;;5010960;28;20041;-75
2022/02/17 10:40:33;;;;;;;6.53;2.00;;;12.10;78.20;;;;;;5032197;28;20041;-74
2022/02/17 10:43:14;;;;;;;4.82;1.70;;;12.30;78.50;;;;;;5015800;28;20045;-77
2022/02/17 10:45:46;;;;;;;7.07;2.75;;;12.40;77.20;;;;;;5016280;28;20045;-75
2022/02/17 10:48:21;;;;;;;5.45;2.30;;;12.50;77.50;;;;;;5016859;28;20546;-75
2022/02/17 10:51:12;;;;;;;4.28;2.05;;;12.50;77.80;;;;;;5030423;28;20047;-75
2022/02/17 10:53:45;;;;;;;6.03;3.00;;;12.50;77.10;;;;;;5014336;28;20049;-74
2022/02/17 10:56:22;;;;;;;6.00;2.50;;;12.60;77.90;;;;;;5017902;28;20045;-75
2022/02/17 10:58:50;;;;;;;5.70;1.83;;;12.70;77.00;;;;;;5035227;28;20045;-76
2022/02/17 11:01:21;;;;;;;10.63;4.10;;;12.70;76.60;;;;;;5017272;28;20127;-76
2022/02/17 11:03:48;;;;;;;6.90;3.60;;;12.90;77.70;;;;;;5003546;28;20095;-75
2022/02/17 11:06:17;;;;;;;5.60;2.60;;;13.00;76.20;;;;;;5037000;28;20036;-74
2022/02/17 11:08:47;;;;;;;5.80;2.45;;;13.30;76.30;;;;;;5018093;28;20037;-76
2022/02/17 11:11:17;;;;;;;5.15;3.15;;;13.40;74.10;;;;;;5030514;28;20041;-74
2022/02/17 11:13:50;;;;;;;8.57;3.50;;;13.50;75.10;;;;;;5014808;28;20052;-75
2022/02/17 11:16:24;;;;;;;6.45;2.92;;;13.60;73.10;;;;;;5021412;28;20060;-75
2022/02/17 11:18:57;;;;;;;12.02;4.63;;;13.60;73.20;;;;;;5015678;28;20049;-74
2022/02/17 11:21:25;;;;;;;6.15;2.60;;;13.70;72.60;;;;;;5016696;28;20054;-75
2022/02/17 11:24:01;;;;;;;6.47;2.67;;;13.70;72.30;;;;;;5034295;28;20496;-77
2022/02/17 11:26:31;;;;;;;8.18;3.30;;;13.80;71.80;;;;;;5033299;28;20574;-77
2022/02/17 11:29:30;;;;;;;7.25;2.45;;;14.00;71.30;;;;;;5034522;28;20041;-77
2022/02/17 11:32:02;;;;;;;6.28;2.85;;;14.10;71.00;;;;;;5030426;28;20493;-76
2022/02/17 11:34:55;;;;;;;11.48;4.63;;;13.80;72.00;;;;;;5034210;28;20074;-77
2022/02/17 11:37:30;;;;;;;;;;;13.70;72.30;;;;;;5037158;28;20628;-77
2022/02/17 11:40:09;;;;;;;4.38;2.25;;;13.60;72.60;;;;;;5034910;28;19925;-77
2022/02/17 11:42:42;;;;;;;6.20;2.55;;;13.60;72.60;;;;;;4995480;28;20060;-76
2022/02/17 11:45:21;;;;;;;7.13;2.80;;;13.50;72.90;;;;;;5011602;28;20124;-77
2022/02/17 11:48:08;;;;;;;5.88;2.80;;;13.30;74.00;;;;;;5037361;28;20038;-77
2022/02/17 11:50:45;;;;;;;5.75;2.88;;;13.20;74.90;;;;;;5012498;28;20050;-76
2022/02/17 11:53:34;;;;;;;6.18;2.83;;;13.10;74.60;;;;;;5031400;28;20811;-75
2022/02/17 11:56:19;;;;;;;8.15;3.35;;;13.20;75.50;;;;;;5030559;28;20429;-75
2022/02/17 11:58:48;;;;;;;7.53;2.88;;;13.30;74.60;;;;;;5032487;28;20729;-77
2022/02/17 12:01:36;;;;;;;5.97;2.63;;;13.20;74.80;;;;;;5015933;28;20104;-77
2022/02/17 12:04:06;;;;;;;6.65;3.58;;;13.10;75.70;;;;;;5012396;28;20048;-75
2022/02/17 12:06:59;;;;;;;6.85;2.70;;;13.20;75.20;;;;;;5030429;28;20091;-77
2022/02/17 12:09:39;;;;;;;6.47;2.78;;;13.10;72.40;;;;;;5013288;28;21025;-77
2022/02/17 12:12:25;;;;;;;7.78;2.72;;;13.20;71.90;;;;;;5016650;28;20064;-76
2022/02/17 12:14:59;;;;;;;7.68;2.83;;;13.50;72.70;;;;;;5034475;28;20045;-76
2022/02/17 12:17:27;;;;;;;6.13;2.35;;;13.70;72.20;;;;;;5015239;28;20508;-77
2022/02/17 12:20:07;;;;;;;5.97;2.67;;;14.00;71.10;;;;;;5033178;28;20139;-77
2022/02/17 12:22:34;;;;;;;8.25;3.33;;;14.20;68.00;;;;;;5014347;28;20710;-76
2022/02/17 12:25:20;;;;;;;7.70;3.75;;;13.90;68.10;;;;;;4996597;28;20045;-76
2022/02/17 12:28:14;;;;;;;10.75;3.25;;;13.80;70.20;;;;;;5014782;28;20416;-76
2022/02/17 12:30:49;;;;;;;7.38;2.80;;;13.70;69.40;;;;;;4993418;28;20097;-75
2022/02/17 12:33:26;;;;;;;7.57;3.30;;;13.50;69.10;;;;;;5016560;28;20049;-77
2022/02/17 12:36:00;;;;;;;7.10;3.50;;;13.20;70.30;;;;;;5001289;28;20507;-75
2022/02/17 12:38:32;;;;;;;8.68;3.08;;;13.10;71.20;;;;;;5015681;28;20049;-75
2022/02/17 12:41:04;;;;;;;8.73;3.47;;;13.00;71.40;;;;;;5034063;28;20147;-75
2022/02/17 12:43:34;;;;;;;6.65;3.65;;;13.00;71.40;;;;;;5028729;28;20136;-75
2022/02/17 12:46:02;;;;;;;7.53;3.42;;;12.90;72.50;;;;;;4999366;28;20053;-74
2022/02/17 12:48:32;;;;;;;7.75;3.75;;;12.90;72.40;;;;;;5033672;28;20051;-75
2022/02/17 12:51:31;;;;;;;11.38;3.72;;;12.80;72.70;;;;;;5037106;28;20098;-75
2022/02/17 12:54:05;;;;;;;8.43;3.30;;;12.80;73.50;;;;;;5002823;28;20080;-75
2022/02/17 12:56:35;;;;;;;18.77;6.70;;;12.70;73.60;;;;;;5025433;28;20049;-76
2022/02/17 12:59:15;;;;;;;38.08;12.25;;;12.70;73.90;;;;;;5035260;28;20124;-75
2022/02/17 13:01:47;;;;;;;19.92;7.28;;;12.70;73.80;;;;;;5033928;28;22324;-75
2022/02/17 13:04:18;;;;;;;31.02;11.57;;;12.70;74.00;;;;;;5021990;28;20815;-76
2022/02/17 13:06:46;;;;;;;11.02;5.15;;;12.80;74.20;;;;;;5012962;28;20045;-75
2022/02/17 13:09:23;;;;;;;16.52;6.93;;;12.70;74.00;;;;;;5036237;28;20145;-76
2022/02/17 13:11:52;;;;;;;10.05;4.53;;;12.80;74.40;;;;;;5035317;28;20115;-75